Lyle, WA

3:34 PM PDT on May 29, 2015 (GMT -0700)
High Prairie Point | | Change Station
CLOSE
Current Station
Personal Weather Station
Location: Lyle, WA
Elevation: 1380 ft
Nearby Weather Stations

Elev 1380 ft 45.74 °N, 121.21 °W | Updated 3 minutes ago

Clear
Clear
81.8 °F
Feels Like 81 °F
N
6.0
Wind Variable Wind from SW
Gusts 10.0 mph

Today
High -- | Low -- °F
--% Chance of Precip.
Yesterday
High -- | Low -- °F
Precip. -- in
5:20 AM 8:44 PM
Waxing Gibbous, 86% visible
Pressure 29.81 in
Visibility 10.0 miles
Clouds Clear
Heat Index 81 °F
Dew Point 52 °F
Humidity 35%
Rainfall 0.00 in
Snow Depth Not available.
UV 9 out of 12
Pollen 8.90 out of 12
Air Quality Not available.
Flu Activity Sporadic
METAR KDLS 292153Z AUTO 34007KT 10SM CLR 33/11 A2981 RMK AO2 SLP093 T03280106

More Conditions Fewer Conditions

Pressure 29.81 in
Visibility 10.0 miles
Clouds Clear
Heat Index 81 °F
Dew Point 52 °F
Humidity 35%
Rainfall 0.00 in
Snow Depth Not available.
UV 9 out of 12
Pollen 8.90 out of 12
Air Quality Not available.
Flu Activity Sporadic
METAR KDLS 292153Z AUTO 34007KT 10SM CLR 33/11 A2981 RMK AO2 SLP093 T03280106

More Conditions Fewer Conditions

Nowcast | as of 2:49 PM PDT on May 29, 2015

Isolated thunderstorms have formed across the east slopes of the Cascades. These storms are tracking northeast between 5 to 10 mph with radar estimates of up to three-quarters of an inch of precipitation possible. These storms will be capable of producing brief heavy rain...small hail...and dangerous cloud-to-ground lightning strikes.

×

10-Day Weather Forecast

Almanac

Astronomy

May. 29, 2015 Rise Set
Actual Time
Civil Twilight
Nautical Twilight
Astronomical Twilight
Moon
Length of Visible Light
Length of Day
Tomorrow will be .
, % of the Moon is Illuminated

Today's Extremes

State Highs State Lows

Community

WunderPhotos

Upload Photos

1,825,378 photos uploaded!

WunderBlogs® & News

Nearby

Air Quality

  Air Quality AQ Index Pollutant
Not available.

Snow Depth

Station Depth Elevation

Earthquake Activity

City Distance Mag. Time & Date
Minimum magnitude displayed is 2.5.

Coastal Water Temperatures

Place Temperature

Stations

Nearby Weather Stations

Station Location Temp. Windchill Dew Point Humidity Wind Precip. Elev Updated Type